createdAt,value
2019-05-09T00:01:37.849Z,10.70
2019-05-09T00:04:43.903Z,10.68
2019-05-09T00:07:47.467Z,10.71
2019-05-09T00:10:53.291Z,10.69
2019-05-09T00:13:56.892Z,10.69
2019-05-09T00:17:00.704Z,10.68
2019-05-09T00:20:13.728Z,10.74
2019-05-09T00:23:17.552Z,10.72
2019-05-09T00:26:23.498Z,10.82
2019-05-09T00:29:33.563Z,10.92
2019-05-09T00:32:39.377Z,10.73
2019-05-09T00:35:44.230Z,10.83
2019-05-09T00:38:48.212Z,10.71
2019-05-09T00:41:53.891Z,10.73
2019-05-09T00:44:59.489Z,10.68
2019-05-09T00:48:03.799Z,10.73
2019-05-09T00:51:07.644Z,10.72
2019-05-09T00:54:13.500Z,10.73
2019-05-09T00:57:35.524Z,10.81
2019-05-09T01:00:39.462Z,10.83
2019-05-09T01:03:43.428Z,10.79
2019-05-09T01:06:47.292Z,10.65
2019-05-09T01:09:51.229Z,10.78
2019-05-09T01:12:55.073Z,10.75
2019-05-09T01:15:58.901Z,10.72
2019-05-09T01:19:03.759Z,10.90
2019-05-09T01:22:07.709Z,10.82
2019-05-09T01:25:13.453Z,10.79
2019-05-09T01:28:17.229Z,10.88
2019-05-09T01:31:21.139Z,10.76
2019-05-09T01:34:28.474Z,10.89
2019-05-09T01:37:34.198Z,10.85
2019-05-09T01:40:38.014Z,10.80
2019-05-09T01:43:44.158Z,10.71
2019-05-09T01:46:47.458Z,10.69
2019-05-09T01:49:51.297Z,10.73
2019-05-09T01:52:55.159Z,10.69
2019-05-09T01:55:59.136Z,10.70
2019-05-09T01:59:03.201Z,10.65
2019-05-09T02:02:08.713Z,10.68
2019-05-09T02:05:13.572Z,10.75
2019-05-09T02:08:17.500Z,10.86
2019-05-09T02:11:23.636Z,10.73
2019-05-09T02:14:48.775Z,10.71
2019-05-09T02:18:05.278Z,10.68
2019-05-09T02:21:11.366Z,10.72
2019-05-09T02:24:14.326Z,10.70
2019-05-09T02:27:18.255Z,10.73
2019-05-09T02:30:25.403Z,10.89
2019-05-09T02:33:28.009Z,10.97
2019-05-09T02:36:31.879Z,10.87
2019-05-09T02:39:35.735Z,11.07
2019-05-09T02:42:40.125Z,10.95
2019-05-09T02:45:54.682Z,10.94
2019-05-09T02:48:59.651Z,10.99
2019-05-09T02:52:04.020Z,10.85
2019-05-09T02:55:09.760Z,10.81
2019-05-09T02:58:20.404Z,10.79
2019-05-09T03:01:29.858Z,10.77
2019-05-09T03:04:33.819Z,10.82
2019-05-09T03:07:58.417Z,10.90
2019-05-09T03:11:01.772Z,10.83
2019-05-09T03:14:08.787Z,10.84
2019-05-09T03:17:11.429Z,10.89
2019-05-09T03:20:35.259Z,10.98
2019-05-09T03:23:39.221Z,10.91
2019-05-09T03:26:45.433Z,10.98
2019-05-09T03:29:53.075Z,11.06
2019-05-09T03:32:59.607Z,10.97
2019-05-09T03:36:02.592Z,10.77
2019-05-09T03:39:08.270Z,10.73
2019-05-09T03:42:12.236Z,10.75
2019-05-09T03:45:18.309Z,10.69
2019-05-09T03:48:28.436Z,10.74
2019-05-09T03:51:32.364Z,10.65
2019-05-09T03:54:38.758Z,10.54
2019-05-09T03:57:47.702Z,10.42
2019-05-09T04:00:51.581Z,10.43
2019-05-09T04:03:55.532Z,10.41
2019-05-09T04:06:59.404Z,10.42
2019-05-09T04:10:03.340Z,10.42
2019-05-09T04:13:08.227Z,10.59
2019-05-09T04:16:12.845Z,10.66
2019-05-09T04:19:17.485Z,10.52
2019-05-09T04:22:21.439Z,10.53
2019-05-09T04:25:29.549Z,10.29
2019-05-09T04:28:33.591Z,10.43
2019-05-09T04:31:38.341Z,10.51
2019-05-09T04:34:42.442Z,10.37
2019-05-09T04:37:48.231Z,10.38
2019-05-09T04:40:51.869Z,10.35
2019-05-09T04:43:57.468Z,10.31
2019-05-09T04:47:03.531Z,10.25
2019-05-09T04:50:07.690Z,10.18
2019-05-09T04:53:11.780Z,10.29
2019-05-09T04:56:20.654Z,10.25
2019-05-09T04:59:24.519Z,10.19
2019-05-09T05:02:41.792Z,10.30
2019-05-09T05:05:48.144Z,10.22
2019-05-09T05:08:51.443Z,10.18
2019-05-09T05:11:57.688Z,10.22
2019-05-09T05:15:00.946Z,10.25
2019-05-09T05:18:04.812Z,10.27
2019-05-09T05:21:08.624Z,10.33
2019-05-09T05:24:31.494Z,10.36
2019-05-09T05:27:35.369Z,10.44
2019-05-09T05:30:39.271Z,10.44
2019-05-09T05:33:53.334Z,10.49
2019-05-09T05:36:54.578Z,10.50
2019-05-09T05:39:58.506Z,10.49
2019-05-09T05:43:02.419Z,10.53
2019-05-09T05:46:14.674Z,10.58
2019-05-09T05:49:18.733Z,10.56
2019-05-09T05:52:22.629Z,10.57
2019-05-09T05:55:27.438Z,10.63
2019-05-09T05:58:41.468Z,10.69
2019-05-09T06:01:47.718Z,10.78
2019-05-09T06:04:51.189Z,10.84
2019-05-09T06:07:57.447Z,11.24
2019-05-09T06:11:00.689Z,11.14
2019-05-09T06:14:09.367Z,11.18
2019-05-09T06:17:11.040Z,11.24
2019-05-09T06:20:17.746Z,11.16
2019-05-09T06:23:22.638Z,11.05
2019-05-09T06:26:29.435Z,11.24
2019-05-09T06:29:33.597Z,11.29
2019-05-09T06:32:38.514Z,11.16
2019-05-09T06:35:44.668Z,11.46
2019-05-09T06:38:49.159Z,11.34
2019-05-09T06:41:53.387Z,11.47
2019-05-09T06:45:08.226Z,11.74
2019-05-09T06:48:13.167Z,11.49
2019-05-09T06:51:21.106Z,11.39
2019-05-09T06:54:23.550Z,11.50
2019-05-09T06:57:38.978Z,11.58
2019-05-09T07:00:52.126Z,11.85
2019-05-09T07:04:00.564Z,11.91
2019-05-09T07:07:12.204Z,12.04
2019-05-09T07:10:17.813Z,12.20
2019-05-09T07:13:21.731Z,12.34
2019-05-09T07:16:27.547Z,12.50
2019-05-09T07:19:31.172Z,12.64
2019-05-09T07:22:50.391Z,12.67
2019-05-09T07:26:11.469Z,12.71
2019-05-09T07:29:17.315Z,12.72
2019-05-09T07:32:22.015Z,12.95
2019-05-09T07:35:27.818Z,12.92
2019-05-09T07:38:32.406Z,12.95
2019-05-09T07:41:38.251Z,13.24
2019-05-09T07:44:48.806Z,13.14
2019-05-09T07:47:47.990Z,13.12
2019-05-09T07:50:51.963Z,13.00
2019-05-09T07:53:55.870Z,13.34
2019-05-09T07:56:59.783Z,13.24
2019-05-09T08:00:03.985Z,13.35
2019-05-09T08:03:12.058Z,13.72
2019-05-09T08:06:13.512Z,13.42
2019-05-09T08:09:18.646Z,13.47
2019-05-09T08:12:22.675Z,13.43
2019-05-09T08:15:28.075Z,13.37
2019-05-09T08:18:32.059Z,13.14
2019-05-09T08:21:38.109Z,13.62
2019-05-09T08:24:41.450Z,13.64
2019-05-09T08:27:45.298Z,13.69
2019-05-09T08:30:49.145Z,13.51
2019-05-09T08:33:53.153Z,13.43
2019-05-09T08:36:58.008Z,13.49
2019-05-09T08:40:02.160Z,13.35
2019-05-09T08:43:07.579Z,13.42
2019-05-09T08:46:12.768Z,13.50
2019-05-09T08:49:18.233Z,13.61
2019-05-09T08:52:22.115Z,13.79
2019-05-09T08:55:27.854Z,13.74
2019-05-09T08:58:31.522Z,14.16
2019-05-09T09:02:04.962Z,14.38
2019-05-09T09:04:41.007Z,14.06
2019-05-09T09:07:44.812Z,14.38
2019-05-09T09:10:49.067Z,14.49
2019-05-09T09:13:53.054Z,14.63
2019-05-09T09:16:57.611Z,14.91
2019-05-09T09:20:01.733Z,14.92
2019-05-09T09:23:05.679Z,14.85
2019-05-09T09:26:09.623Z,15.20
2019-05-09T09:29:13.478Z,14.91
2019-05-09T09:32:18.860Z,14.79
2019-05-09T09:35:23.171Z,14.67
2019-05-09T09:38:28.150Z,14.83
2019-05-09T09:41:32.074Z,14.96
2019-05-09T09:44:35.922Z,14.99
2019-05-09T09:47:40.552Z,14.85
2019-05-09T09:50:44.656Z,14.61
2019-05-09T09:53:49.046Z,14.50
2019-05-09T09:56:53.894Z,14.74
2019-05-09T10:00:15.369Z,15.16
2019-05-09T10:03:19.928Z,15.32
2019-05-09T10:06:28.490Z,15.40
2019-05-09T10:09:32.426Z,15.19
2019-05-09T10:12:43.580Z,15.35
2019-05-09T10:16:13.086Z,15.12
2019-05-09T10:19:23.755Z,15.50
2019-05-09T10:22:27.653Z,15.45
2019-05-09T10:25:31.519Z,15.78
2019-05-09T10:28:37.848Z,15.52
2019-05-09T10:31:40.998Z,15.26
2019-05-09T10:34:44.981Z,15.31
2019-05-09T10:37:48.814Z,15.28
2019-05-09T10:40:53.444Z,15.31
2019-05-09T10:44:08.299Z,15.39
2019-05-09T10:47:32.101Z,15.31
2019-05-09T10:50:43.143Z,15.41
2019-05-09T10:53:41.479Z,15.34
2019-05-09T10:56:45.445Z,15.77
2019-05-09T10:59:49.294Z,15.85
2019-05-09T11:02:53.124Z,16.19
2019-05-09T11:05:57.945Z,16.00
2019-05-09T11:09:01.927Z,15.91
2019-05-09T11:12:07.926Z,15.67
2019-05-09T11:15:11.582Z,15.81
2019-05-09T11:18:18.627Z,15.95
2019-05-09T11:21:25.028Z,16.13
2019-05-09T11:24:41.803Z,16.46
2019-05-09T11:27:34.844Z,16.54
2019-05-09T11:30:38.805Z,16.73
2019-05-09T11:33:42.555Z,16.77
2019-05-09T11:36:46.429Z,16.94
2019-05-09T11:39:50.224Z,16.58
2019-05-09T11:42:54.122Z,16.29
2019-05-09T11:45:58.653Z,16.52
2019-05-09T11:49:02.914Z,16.25
2019-05-09T11:52:08.396Z,16.14
2019-05-09T11:55:28.694Z,16.25
2019-05-09T11:58:18.309Z,16.56
2019-05-09T12:01:22.141Z,16.84
2019-05-09T12:04:28.077Z,16.92
2019-05-09T12:07:31.565Z,17.11
2019-05-09T12:10:38.087Z,17.11
2019-05-09T12:13:40.999Z,17.11
2019-05-09T12:16:44.853Z,16.94
2019-05-09T12:19:49.032Z,16.91
2019-05-09T12:22:52.882Z,17.18
2019-05-09T12:25:58.243Z,17.29
2019-05-09T12:29:02.169Z,17.58
2019-05-09T12:32:08.578Z,17.39
2019-05-09T12:35:11.910Z,17.52
2019-05-09T12:38:17.917Z,17.51
2019-05-09T12:41:21.356Z,17.39
2019-05-09T12:44:25.357Z,17.77
2019-05-09T12:47:29.384Z,17.73
2019-05-09T12:50:33.145Z,17.63
2019-05-09T12:53:39.383Z,17.73
2019-05-09T12:56:42.629Z,17.86
2019-05-09T12:59:52.410Z,17.74
2019-05-09T13:02:52.016Z,17.76
2019-05-09T13:05:57.473Z,17.91
2019-05-09T13:09:01.462Z,17.92
2019-05-09T13:12:05.534Z,17.72
2019-05-09T13:15:09.434Z,17.82
2019-05-09T13:18:24.633Z,17.97
2019-05-09T13:21:20.436Z,17.58
2019-05-09T13:24:24.335Z,18.13
2019-05-09T13:27:28.670Z,17.91
2019-05-09T13:30:32.549Z,18.03
2019-05-09T13:33:38.482Z,18.40
2019-05-09T13:36:42.119Z,18.64
2019-05-09T13:39:47.581Z,18.37
2019-05-09T13:42:51.546Z,18.28
2019-05-09T13:45:55.376Z,18.39
2019-05-09T13:49:11.029Z,18.57
2019-05-09T13:52:05.317Z,18.69
2019-05-09T13:55:09.405Z,18.44
2019-05-09T13:58:13.708Z,18.36
2019-05-09T14:01:17.867Z,18.63
2019-05-09T14:04:21.906Z,18.94
2019-05-09T14:07:27.924Z,19.18
2019-05-09T14:10:31.282Z,19.01
2019-05-09T14:13:35.245Z,18.53
2019-05-09T14:16:39.271Z,18.24
2019-05-09T14:19:46.820Z,17.91
2019-05-09T14:22:49.167Z,18.20
2019-05-09T14:25:53.035Z,18.19
2019-05-09T14:28:58.294Z,18.16
2019-05-09T14:32:04.814Z,18.35
2019-05-09T14:35:08.672Z,18.66
2019-05-09T14:38:12.493Z,18.72
2019-05-09T14:41:16.462Z,18.49
2019-05-09T14:44:20.278Z,18.10
2019-05-09T14:47:24.235Z,18.54
2019-05-09T14:50:28.555Z,18.87
2019-05-09T14:53:33.184Z,19.03
2019-05-09T14:56:41.698Z,19.02
2019-05-09T14:59:42.603Z,18.63
2019-05-09T15:02:48.700Z,18.97
2019-05-09T15:05:52.026Z,19.45
2019-05-09T15:08:57.910Z,19.87
2019-05-09T15:12:01.386Z,19.76
2019-05-09T15:15:07.547Z,19.49
2019-05-09T15:18:12.381Z,19.13
2019-05-09T15:21:18.928Z,19.13
2019-05-09T15:24:21.821Z,19.65
2019-05-09T15:27:27.664Z,20.05
2019-05-09T15:30:31.171Z,20.13
2019-05-09T15:33:37.455Z,19.17
2019-05-09T15:36:40.562Z,18.68
2019-05-09T15:39:44.377Z,18.56
2019-05-09T15:42:48.320Z,18.42
2019-05-09T15:46:20.447Z,18.13
2019-05-09T15:49:24.271Z,17.93
2019-05-09T15:52:28.668Z,17.82
2019-05-09T15:55:32.497Z,17.65
2019-05-09T15:58:38.523Z,17.43
2019-05-09T16:01:41.963Z,17.27
2019-05-09T16:04:47.542Z,17.62
2019-05-09T16:07:51.483Z,17.90
2019-05-09T16:10:57.927Z,18.15
2019-05-09T16:14:03.114Z,18.30
2019-05-09T16:17:07.840Z,17.96
2019-05-09T16:20:12.329Z,17.71
2019-05-09T16:23:18.418Z,17.45
2019-05-09T16:26:21.694Z,17.32
2019-05-09T16:29:27.983Z,17.08
2019-05-09T16:32:31.313Z,17.09
2019-05-09T16:35:35.129Z,17.01
2019-05-09T16:38:45.395Z,16.87
2019-05-09T16:41:44.883Z,16.78
2019-05-09T16:44:48.755Z,16.55
2019-05-09T16:47:52.576Z,16.60
2019-05-09T16:51:03.377Z,16.47
2019-05-09T16:54:02.012Z,16.37
2019-05-09T16:57:08.317Z,16.29
2019-05-09T17:00:14.541Z,16.22
2019-05-09T17:03:18.521Z,16.29
2019-05-09T17:06:22.408Z,16.23
2019-05-09T17:09:28.465Z,16.22
2019-05-09T17:12:32.100Z,16.25
2019-05-09T17:15:38.750Z,16.30
2019-05-09T17:18:41.757Z,16.28
2019-05-09T17:22:02.846Z,16.29
2019-05-09T17:25:07.976Z,16.28
2019-05-09T17:28:11.966Z,16.24
2019-05-09T17:31:18.098Z,16.20
2019-05-09T17:34:21.777Z,16.17
2019-05-09T17:37:25.676Z,16.09
2019-05-09T17:40:31.421Z,15.88
2019-05-09T17:43:35.245Z,15.87
2019-05-09T17:46:40.178Z,15.84
2019-05-09T17:49:43.989Z,15.76
2019-05-09T17:52:48.183Z,15.69
2019-05-09T17:55:52.225Z,15.50
2019-05-09T17:58:57.867Z,15.41
2019-05-09T18:02:01.718Z,15.27
2019-05-09T18:05:11.789Z,15.27
2019-05-09T18:08:40.575Z,15.19
2019-05-09T18:11:44.526Z,15.07
2019-05-09T18:14:48.514Z,14.96
2019-05-09T18:17:52.417Z,14.94
2019-05-09T18:20:57.999Z,14.86
2019-05-09T18:24:02.067Z,14.70
2019-05-09T18:27:07.671Z,14.52
2019-05-09T18:30:12.826Z,14.52
2019-05-09T18:33:31.475Z,14.41
2019-05-09T18:36:38.025Z,14.23
2019-05-09T18:39:40.888Z,14.14
2019-05-09T18:42:44.855Z,14.10
2019-05-09T18:45:48.699Z,13.98
2019-05-09T18:48:52.497Z,13.92
2019-05-09T18:52:03.986Z,13.76
2019-05-09T18:55:01.902Z,13.71
2019-05-09T18:58:05.917Z,13.69
2019-05-09T19:01:09.784Z,13.61
2019-05-09T19:04:13.687Z,13.48
2019-05-09T19:07:22.546Z,13.41
2019-05-09T19:10:23.157Z,13.34
2019-05-09T19:13:27.054Z,13.38
2019-05-09T19:16:39.205Z,13.32
2019-05-09T19:19:49.562Z,13.31
2019-05-09T19:22:53.529Z,13.26
2019-05-09T19:25:59.079Z,13.15
2019-05-09T19:29:02.967Z,13.16
2019-05-09T19:32:06.843Z,13.09
2019-05-09T19:35:10.891Z,13.08
2019-05-09T19:38:14.731Z,13.10
2019-05-09T19:41:18.689Z,13.02
2019-05-09T19:44:22.528Z,12.93
2019-05-09T19:47:26.425Z,12.94
2019-05-09T19:50:30.353Z,13.03
2019-05-09T19:53:34.171Z,12.96
2019-05-09T19:56:38.027Z,12.86
2019-05-09T19:59:42.011Z,12.85
2019-05-09T20:02:45.888Z,12.92
2019-05-09T20:05:49.718Z,12.89
2019-05-09T20:08:53.685Z,13.35
2019-05-09T20:12:10.465Z,13.46
2019-05-09T20:15:17.086Z,13.35
2019-05-09T20:18:20.890Z,13.11
2019-05-09T20:21:24.872Z,12.90
2019-05-09T20:24:28.771Z,12.83
2019-05-09T20:27:32.665Z,12.80
2019-05-09T20:30:36.488Z,13.01
2019-05-09T20:33:40.317Z,13.48
2019-05-09T20:36:44.287Z,13.47
2019-05-09T20:39:48.297Z,13.13
2019-05-09T20:42:52.383Z,13.04
2019-05-09T20:45:56.438Z,12.92
2019-05-09T20:49:00.439Z,12.87
2019-05-09T20:52:04.499Z,12.85
2019-05-09T20:55:08.654Z,12.80
2019-05-09T20:58:12.700Z,12.65
2019-05-09T21:01:16.850Z,12.64
2019-05-09T21:04:20.864Z,12.53
2019-05-09T21:07:24.844Z,12.51
2019-05-09T21:10:28.859Z,12.45
2019-05-09T21:13:47.396Z,12.47
2019-05-09T21:16:38.589Z,12.54
2019-05-09T21:19:42.608Z,12.58
2019-05-09T21:22:46.598Z,12.63
2019-05-09T21:25:50.671Z,12.58
2019-05-09T21:28:54.597Z,13.13
2019-05-09T21:31:58.685Z,13.32
2019-05-09T21:35:02.859Z,12.91
2019-05-09T21:38:06.741Z,12.93
2019-05-09T21:41:10.633Z,12.71
2019-05-09T21:44:14.426Z,12.88
2019-05-09T21:47:18.240Z,12.99
2019-05-09T21:50:22.040Z,13.27
2019-05-09T21:53:39.791Z,13.08
2019-05-09T21:56:31.424Z,13.05
2019-05-09T21:59:35.257Z,12.97
2019-05-09T22:02:39.215Z,12.94
2019-05-09T22:05:43.119Z,12.92
2019-05-09T22:08:47.006Z,12.96
2019-05-09T22:11:50.871Z,12.96
2019-05-09T22:14:54.715Z,12.78
2019-05-09T22:17:58.668Z,12.88
2019-05-09T22:21:02.514Z,12.72
2019-05-09T22:24:06.463Z,12.98
2019-05-09T22:27:10.277Z,12.87
2019-05-09T22:30:15.600Z,12.82
2019-05-09T22:33:19.400Z,12.55
2019-05-09T22:36:23.293Z,12.71
2019-05-09T22:39:27.146Z,12.51
2019-05-09T22:42:31.104Z,12.37
2019-05-09T22:45:35.039Z,12.33
2019-05-09T22:48:38.847Z,12.30
2019-05-09T22:51:42.678Z,12.24
2019-05-09T22:54:46.482Z,12.22
2019-05-09T22:57:50.431Z,12.37
2019-05-09T23:00:54.408Z,12.23
2019-05-09T23:03:58.271Z,12.15
2019-05-09T23:07:02.156Z,12.10
2019-05-09T23:10:06.370Z,12.08
2019-05-09T23:13:10.264Z,12.07
2019-05-09T23:16:14.136Z,12.06
2019-05-09T23:19:17.964Z,12.04
2019-05-09T23:22:24.337Z,12.00
2019-05-09T23:25:28.142Z,11.98
2019-05-09T23:28:32.028Z,12.00
2019-05-09T23:31:50.288Z,11.91
2019-05-09T23:34:54.185Z,11.99
2019-05-09T23:37:58.428Z,11.89
2019-05-09T23:41:02.271Z,11.86
2019-05-09T23:44:06.152Z,11.87
2019-05-09T23:47:10.154Z,11.89
2019-05-09T23:50:14.115Z,11.83
2019-05-09T23:53:31.583Z,11.76
2019-05-09T23:56:53.087Z,11.71
